Chicago, Illinois
Traffic Map
Current Weather Conditions
Chicago, Illinois
Clear
Clear
21°
Feels Like: 15°
Wind Chill: 15° Ceiling: Unl
Heat Index: 21° Visibility: 7mi
Dew Point: 16° Wind: 5mph
Humidity: 81% Direction: 210° (SSW)
Pressure: 30.3in Gusts: 0mph
Raw Report DataKMDW 101453Z 21004KT 7SM CLR M06/M09 A3030 RMK AO2 SLP276 T10611089 53005
Traffic Incident Summary
Active as of:
Severity:
Category:
InformationThere was an issue retrieving the traffic information for this location. Please try a different location or try again shortly.
Advertisements